Time;durP1;ratioP1;P1;durP2;ratioP2;P2;SDS_P1;SDS_P2;PMS_P1;PMS_P2;Temp;Humidity;BMP_temperature;BMP_pressure;BME280_temperature;BME280_humidity;BME280_pressure;Samples;Min_cycle;Max_cycle;Signal;HPM_P1;HPM_P2
2021/10/05 00:00:13;;;;;;;7.20;4.90;;;;;;;7.65;94.86;93766.13;1814637;77;21085;-84
2021/10/05 00:02:39;;;;;;;8.25;4.50;;;;;;;7.50;95.64;93767.09;1814540;77;21018;-86
2021/10/05 00:05:07;;;;;;;7.45;4.50;;;;;;;7.45;96.39;93770.12;1810679;77;21022;-84
2021/10/05 00:07:33;;;;;;;9.40;5.22;;;;;;;7.48;96.72;93771.50;1845138;76;21505;-84
2021/10/05 00:10:00;;;;;;;7.78;4.78;;;;;;;7.49;96.71;93772.30;1844496;76;21124;-84
2021/10/05 00:12:26;;;;;;;6.80;4.60;;;;;;;7.49;96.85;93764.97;1851116;75;21053;-85
2021/10/05 00:14:52;;;;;;;8.18;4.90;;;;;;;7.54;97.03;93762.50;1854160;75;21076;-85
2021/10/05 00:17:19;;;;;;;10.95;5.45;;;;;;;7.60;96.95;93760.24;1853882;75;21179;-83
2021/10/05 00:19:46;;;;;;;8.10;5.37;;;;;;;7.66;96.83;93764.20;1827723;76;21551;-83
2021/10/05 00:22:14;;;;;;;10.82;5.55;;;;;;;7.70;96.65;93764.44;1803300;78;21049;-83
2021/10/05 00:24:41;;;;;;;12.93;7.22;;;;;;;7.74;96.46;93765.84;1791361;78;21593;-83
2021/10/05 00:27:08;;;;;;;15.40;8.13;;;;;;;7.76;96.06;93767.62;1777607;78;21062;-83
2021/10/05 00:29:34;;;;;;;19.65;12.45;;;;;;;7.77;95.79;93774.58;1784288;78;21576;-84
2021/10/05 00:32:00;;;;;;;14.18;9.10;;;;;;;7.75;95.25;93772.26;1778701;78;21030;-83
2021/10/05 00:34:27;;;;;;;8.60;6.42;;;;;;;7.74;95.28;93765.84;1795721;77;21075;-85
2021/10/05 00:36:53;;;;;;;16.23;9.85;;;;;;;7.75;95.29;93764.13;1808303;77;21804;-83
2021/10/05 00:39:21;;;;;;;8.68;5.42;;;;;;;7.66;95.34;93769.03;1824877;77;21026;-84
2021/10/05 00:41:49;;;;;;;7.75;5.30;;;;;;;7.60;95.74;93767.81;1846617;76;21033;-84
2021/10/05 00:44:15;;;;;;;8.60;5.58;;;;;;;7.53;96.21;93763.66;1837622;76;21023;-84
2021/10/05 00:46:41;;;;;;;11.03;6.03;;;;;;;7.53;96.42;93771.20;1829107;77;21101;-83
2021/10/05 00:49:08;;;;;;;7.42;5.08;;;;;;;7.57;96.35;93768.55;1793300;78;21730;-84
2021/10/05 00:51:36;;;;;;;8.45;5.47;;;;;;;7.58;96.35;93767.97;1817922;75;21056;-84
2021/10/05 00:54:02;;;;;;;10.63;5.10;;;;;;;7.60;96.69;93761.59;1797965;78;21044;-84
2021/10/05 00:56:29;;;;;;;7.53;5.28;;;;;;;7.63;96.64;93764.34;1770751;78;21037;-83
2021/10/05 00:58:55;;;;;;;10.90;6.40;;;;;;;7.62;96.78;93764.73;1794615;78;21091;-84
2021/10/05 01:01:22;;;;;;;12.47;8.43;;;;;;;7.63;97.08;93760.87;1847921;76;21054;-84
2021/10/05 01:03:48;;;;;;;20.92;7.87;;;;;;;7.66;96.93;93762.27;1772427;78;21297;-84
2021/10/05 01:06:15;;;;;;;13.53;7.92;;;;;;;7.68;96.82;93759.98;1799774;76;21834;-85
2021/10/05 01:08:41;;;;;;;8.13;5.30;;;;;;;7.74;96.92;93764.48;1780053;77;21136;-85
2021/10/05 01:11:08;;;;;;;6.67;4.83;;;;;;;7.74;96.69;93757.72;1811653;78;21062;-86
2021/10/05 01:13:34;;;;;;;10.68;6.35;;;;;;;7.78;96.95;93762.05;1850795;75;21526;-83
2021/10/05 01:16:01;;;;;;;11.33;6.15;;;;;;;7.84;96.97;93753.02;1784040;77;21060;-83
2021/10/05 01:18:27;;;;;;;7.40;5.17;;;;;;;7.86;96.64;93756.70;1801956;77;21134;-84
2021/10/05 01:21:04;;;;;;;7.17;5.00;;;;;;;7.84;96.39;93763.06;1826835;76;21003;-84
2021/10/05 01:23:33;;;;;;;10.88;5.80;;;;;;;7.80;96.49;93761.67;1794247;76;21026;-83
2021/10/05 01:25:59;;;;;;;6.75;4.62;;;;;;;7.76;96.79;93753.50;1839585;76;21242;-83
2021/10/05 01:28:31;;;;;;;8.05;4.90;;;;;;;7.71;97.16;93756.55;1811876;76;21567;-83
2021/10/05 01:31:00;;;;;;;7.83;3.95;;;;;;;7.66;97.68;93752.80;1775580;78;21050;-83
2021/10/05 01:33:28;;;;;;;7.65;4.37;;;;;;;7.65;97.92;93761.29;1744460;79;21083;-82
2021/10/05 01:35:54;;;;;;;6.85;4.45;;;;;;;7.63;98.25;93754.10;1772351;78;21070;-84
2021/10/05 01:38:21;;;;;;;7.58;4.97;;;;;;;7.64;98.57;93758.39;1817659;77;21132;-83
2021/10/05 01:40:48;;;;;;;9.65;5.17;;;;;;;7.64;98.50;93757.81;1789825;77;21016;-82
2021/10/05 01:43:14;;;;;;;8.88;5.35;;;;;;;7.61;98.50;93751.00;1792652;78;21027;-83
2021/10/05 01:45:41;;;;;;;9.75;6.80;;;;;;;7.59;99.05;93754.62;1810829;77;20954;-83
2021/10/05 01:48:08;;;;;;;17.62;8.40;;;;;;;7.65;99.21;93751.82;1820526;77;21033;-84
2021/10/05 01:50:35;;;;;;;13.60;8.03;;;;;;;7.69;98.72;93756.70;1798956;78;22009;-86
2021/10/05 01:53:02;;;;;;;12.30;7.80;;;;;;;7.71;98.43;93755.74;1830236;77;21101;-85
2021/10/05 01:55:28;;;;;;;18.87;10.53;;;;;;;7.74;98.20;93758.49;1825452;77;21026;-84
2021/10/05 01:57:55;;;;;;;22.20;10.53;;;;;;;7.76;97.66;93760.85;1823635;77;21579;-84
2021/10/05 02:00:21;;;;;;;15.50;10.50;;;;;;;7.75;97.50;93756.02;1827162;77;21528;-82
2021/10/05 02:02:49;;;;;;;14.90;9.43;;;;;;;7.79;97.25;93754.70;1803718;78;21083;-83
2021/10/05 02:05:15;;;;;;;14.53;9.38;;;;;;;7.81;96.95;93754.33;1830629;77;21500;-83
2021/10/05 02:07:42;;;;;;;18.82;9.18;;;;;;;7.83;96.63;93755.52;1799113;77;21521;-82
2021/10/05 02:10:09;;;;;;;13.65;7.45;;;;;;;7.85;96.22;93748.38;1820618;77;21039;-84
2021/10/05 02:12:36;;;;;;;10.20;6.95;;;;;;;7.83;95.91;93752.05;1818042;77;21614;-82
2021/10/05 02:15:03;;;;;;;13.48;9.00;;;;;;;7.79;95.85;93752.77;1803653;77;21743;-83
2021/10/05 02:17:30;;;;;;;13.90;8.75;;;;;;;7.70;95.73;93756.32;1835142;77;20995;-84
2021/10/05 02:19:56;;;;;;;18.75;8.65;;;;;;;7.65;96.06;93755.30;1826497;77;21030;-84
2021/10/05 02:22:23;;;;;;;13.78;8.00;;;;;;;7.61;96.23;93753.13;1826354;77;20968;-83
2021/10/05 02:24:49;;;;;;;12.55;8.13;;;;;;;7.59;96.50;93746.52;1827044;77;21096;-83
2021/10/05 02:27:19;;;;;;;13.28;7.47;;;;;;;7.59;96.83;93754.05;1827338;77;21106;-83
2021/10/05 02:29:46;;;;;;;18.02;8.23;;;;;;;7.58;96.86;93752.50;1809952;77;21021;-83
2021/10/05 02:32:13;;;;;;;14.18;8.05;;;;;;;7.57;96.90;93753.66;1794521;78;21615;-83
2021/10/05 02:34:39;;;;;;;13.48;8.33;;;;;;;7.61;97.09;93760.47;1802131;78;21032;-82
2021/10/05 02:37:06;;;;;;;11.55;7.58;;;;;;;7.63;96.85;93753.52;1811821;78;21067;-84
2021/10/05 02:39:33;;;;;;;11.60;8.00;;;;;;;7.65;96.84;93755.88;1795570;78;21294;-84
2021/10/05 02:42:00;;;;;;;15.95;7.85;;;;;;;7.64;96.71;93755.69;1797756;77;21035;-84
2021/10/05 02:44:26;;;;;;;11.03;7.20;;;;;;;7.65;96.85;93751.82;1819958;77;21549;-81
2021/10/05 02:46:53;;;;;;;17.60;8.18;;;;;;;7.67;96.86;93750.86;1766144;77;21081;-83
2021/10/05 02:49:19;;;;;;;13.32;7.65;;;;;;;7.71;96.97;93750.33;1785135;77;21041;-83
2021/10/05 02:51:45;;;;;;;17.37;8.70;;;;;;;7.74;96.96;93745.53;1814798;77;21106;-82
2021/10/05 02:54:12;;;;;;;11.28;7.75;;;;;;;7.76;97.04;93747.31;1853772;75;21635;-85
2021/10/05 02:56:38;;;;;;;11.48;7.05;;;;;;;7.78;97.08;93747.16;1806834;78;21009;-83
2021/10/05 02:59:05;;;;;;;8.73;6.67;;;;;;;7.83;97.14;93742.56;1777196;79;21062;-83
2021/10/05 03:01:31;;;;;;;12.63;7.30;;;;;;;7.86;97.22;93743.96;1775726;79;21117;-86
2021/10/05 03:03:58;;;;;;;8.80;6.10;;;;;;;7.91;97.08;93744.20;1794663;78;21592;-84
2021/10/05 03:06:25;;;;;;;10.78;6.22;;;;;;;7.88;96.77;93738.94;1813215;77;21108;-83
2021/10/05 03:08:54;;;;;;;7.15;5.12;;;;;;;7.86;96.73;93749.92;1794655;78;21071;-84
2021/10/05 03:11:19;;;;;;;8.20;5.10;;;;;;;7.82;96.85;93757.23;1786782;78;21133;-84
2021/10/05 03:13:46;;;;;;;7.42;5.25;;;;;;;7.77;97.05;93750.99;1777448;78;21098;-83
2021/10/05 03:16:12;;;;;;;9.40;5.08;;;;;;;7.76;97.56;93749.45;1769364;79;21778;-83
2021/10/05 03:18:41;;;;;;;9.63;6.05;;;;;;;7.77;97.71;93752.92;1808011;77;21081;-83
2021/10/05 03:21:08;;;;;;;16.25;7.65;;;;;;;7.75;97.60;93755.23;1784634;77;21057;-84
2021/10/05 03:23:35;;;;;;;11.18;8.63;;;;;;;7.71;97.36;93752.48;1822009;77;20987;-83
2021/10/05 03:26:04;;;;;;;13.72;8.48;;;;;;;7.67;97.26;93750.31;1858514;75;21880;-84
2021/10/05 03:28:32;;;;;;;10.90;7.90;;;;;;;7.64;97.11;93747.56;1836874;75;21041;-83
2021/10/05 03:30:59;;;;;;;12.05;7.47;;;;;;;7.62;97.09;93751.97;1835307;75;21031;-84
2021/10/05 03:33:26;;;;;;;9.20;6.85;;;;;;;7.63;97.04;93748.69;1854852;75;21219;-82
2021/10/05 03:35:52;;;;;;;7.80;5.12;;;;;;;7.63;97.13;93755.45;1797348;78;21037;-82
2021/10/05 03:38:18;;;;;;;8.93;6.40;;;;;;;7.65;97.17;93748.53;1811452;77;21465;-84
2021/10/05 03:40:45;;;;;;;9.20;5.53;;;;;;;7.63;97.01;93752.75;1841791;75;21511;-81
2021/10/05 03:43:11;;;;;;;7.05;5.45;;;;;;;7.55;97.15;93749.95;1820633;76;21086;-83
2021/10/05 03:45:38;;;;;;;7.40;5.62;;;;;;;7.48;98.02;93750.44;1749484;80;21133;-83
2021/10/05 03:48:04;;;;;;;6.25;5.05;;;;;;;7.48;98.59;93749.08;1752861;80;21067;-83
2021/10/05 03:50:31;;;;;;;7.95;4.90;;;;;;;7.52;98.85;93752.61;1782440;79;21078;-85
2021/10/05 03:52:57;;;;;;;6.72;4.65;;;;;;;7.57;98.91;93755.02;1824131;76;21499;-84
2021/10/05 03:55:24;;;;;;;6.45;4.15;;;;;;;7.63;98.88;93758.94;1794617;77;21045;-83
2021/10/05 03:57:50;;;;;;;9.30;4.92;;;;;;;7.68;98.76;93761.91;1851727;76;21055;-82
2021/10/05 04:00:16;;;;;;;8.18;5.75;;;;;;;7.71;98.56;93758.45;1829160;77;21545;-83
2021/10/05 04:02:43;;;;;;;8.15;4.55;;;;;;;7.71;98.49;93757.09;1809515;77;21069;-82
2021/10/05 04:05:10;;;;;;;10.30;4.97;;;;;;;7.73;98.39;93757.52;1768508;78;21403;-84
2021/10/05 04:07:37;;;;;;;6.30;4.50;;;;;;;7.70;98.50;93750.91;1791243;77;20947;-82
2021/10/05 04:10:05;;;;;;;8.48;6.08;;;;;;;7.69;98.99;93760.76;1820007;77;21106;-84
2021/10/05 04:12:33;;;;;;;7.50;4.80;;;;;;;7.73;99.01;93757.52;1793687;76;21032;-82
2021/10/05 04:14:59;;;;;;;8.00;5.10;;;;;;;7.71;98.65;93765.22;1864975;76;21706;-84
2021/10/05 04:17:27;;;;;;;8.33;4.72;;;;;;;7.68;98.76;93766.75;1845554;75;21094;-83
2021/10/05 04:19:54;;;;;;;10.43;6.72;;;;;;;7.65;98.81;93769.41;1823207;77;21109;-83
2021/10/05 04:22:21;;;;;;;7.78;5.22;;;;;;;7.68;98.69;93774.09;1809263;77;21077;-83
2021/10/05 04:24:47;;;;;;;9.75;5.47;;;;;;;7.70;98.46;93773.14;1818147;76;21105;-84
2021/10/05 04:27:14;;;;;;;11.20;6.12;;;;;;;7.67;98.25;93779.28;1862806;75;21120;-83
2021/10/05 04:29:40;;;;;;;12.10;7.53;;;;;;;7.65;98.35;93782.37;1824685;77;21560;-84
2021/10/05 04:32:07;;;;;;;12.03;7.30;;;;;;;7.61;97.93;93781.55;1796440;77;21042;-82
2021/10/05 04:34:34;;;;;;;5.90;4.70;;;;;;;7.59;98.02;93781.12;1760915;79;21055;-84
2021/10/05 04:37:01;;;;;;;8.98;6.78;;;;;;;7.61;97.96;93775.36;1785170;78;21142;-83
2021/10/05 04:39:28;;;;;;;9.45;6.70;;;;;;;7.63;98.18;93786.00;1779076;78;21050;-83
2021/10/05 04:41:56;;;;;;;18.65;10.05;;;;;;;7.63;97.96;93782.52;1781656;78;21840;-84
2021/10/05 04:44:22;;;;;;;12.50;10.58;;;;;;;7.64;97.92;93787.58;1771022;78;21062;-84
2021/10/05 04:46:49;;;;;;;11.75;9.03;;;;;;;7.65;97.54;93780.23;1791056;78;21069;-84
2021/10/05 04:49:15;;;;;;;11.38;8.28;;;;;;;7.64;97.38;93781.39;1801949;78;21117;-83
2021/10/05 04:51:42;;;;;;;11.95;8.33;;;;;;;7.61;97.30;93782.13;1806107;74;21541;-85
2021/10/05 04:54:08;;;;;;;9.28;6.45;;;;;;;7.62;97.25;93783.09;1876653;74;21559;-84
2021/10/05 04:56:35;;;;;;;17.37;7.75;;;;;;;7.59;97.34;93784.41;1827165;75;21019;-83
2021/10/05 04:59:01;;;;;;;9.90;6.70;;;;;;;7.58;97.59;93780.92;1795799;78;22246;-83
2021/10/05 05:01:28;;;;;;;10.82;6.72;;;;;;;7.60;97.52;93784.59;1802456;77;21066;-83
2021/10/05 05:03:55;;;;;;;8.85;5.55;;;;;;;7.58;97.73;93784.98;1794044;78;21022;-85
2021/10/05 05:06:21;;;;;;;7.83;6.08;;;;;;;7.59;97.80;93785.17;1800043;77;21167;-84
2021/10/05 05:08:48;;;;;;;12.80;7.62;;;;;;;7.62;98.02;93795.85;1807915;77;21163;-86
2021/10/05 05:11:14;;;;;;;12.15;7.75;;;;;;;7.66;97.99;93789.91;1820729;77;21058;-84
2021/10/05 05:13:41;;;;;;;13.22;6.50;;;;;;;7.81;98.58;93797.06;1822413;77;21087;-85
2021/10/05 05:16:09;;;;;;;7.80;5.55;;;;;;;8.16;99.76;93793.20;1803371;77;22263;-85
2021/10/05 05:18:36;;;;;;;17.30;7.17;;;;;;;8.66;99.23;93787.77;1821899;76;21134;-86
2021/10/05 05:21:02;;;;;;;18.98;12.63;;;;;;;9.18;98.86;93791.29;1826682;77;21051;-86
2021/10/05 05:23:29;;;;;;;11.15;7.33;;;;;;;9.76;96.73;93784.84;1824799;76;21363;-87
2021/10/05 05:25:56;;;;;;;11.18;7.53;;;;;;;10.31;93.74;93786.07;1788067;76;21596;-88
2021/10/05 05:28:23;;;;;;;10.58;8.30;;;;;;;10.73;90.58;93788.09;1782329;78;21069;-86
2021/10/05 05:30:50;;;;;;;10.68;7.60;;;;;;;11.14;88.13;93788.50;1800167;77;21098;-85
2021/10/05 05:33:18;;;;;;;12.23;7.12;;;;;;;11.58;86.20;93790.00;1825759;77;21068;-85
2021/10/05 05:35:46;;;;;;;9.18;5.97;;;;;;;12.03;84.07;93784.84;1833868;75;21054;-85
2021/10/05 05:38:15;;;;;;;15.78;10.95;;;;;;;12.24;81.45;93783.99;1844109;75;21097;-87
2021/10/05 05:40:42;;;;;;;11.03;6.37;;;;;;;12.21;79.86;93782.64;1837161;75;21097;-86
2021/10/05 05:43:14;;;;;;;6.75;5.50;;;;;;;12.16;79.18;93786.56;1830909;76;21691;-84
2021/10/05 05:45:43;;;;;;;12.80;7.62;;;;;;;12.18;79.03;93786.93;1810698;75;21015;-86
2021/10/05 05:48:09;;;;;;;8.75;5.12;;;;;;;12.38;79.05;93783.94;1850862;75;21053;-85
2021/10/05 05:50:37;;;;;;;7.80;5.22;;;;;;;12.72;77.91;93789.41;1765951;78;21069;-86
2021/10/05 05:53:04;;;;;;;4.83;4.40;;;;;;;12.89;76.63;93781.67;1811358;77;21120;-85
2021/10/05 05:55:30;;;;;;;7.62;5.50;;;;;;;13.10;75.92;93781.52;1802794;76;21109;-85
2021/10/05 05:57:57;;;;;;;9.18;4.97;;;;;;;13.35;74.68;93776.45;1822128;76;21042;-87
2021/10/05 06:00:24;;;;;;;15.55;10.18;;;;;;;13.47;73.19;93782.04;1824999;76;21018;-85
2021/10/05 06:02:51;;;;;;;15.32;12.50;;;;;;;13.54;72.80;93781.38;1840297;75;21488;-86
2021/10/05 06:05:18;;;;;;;10.45;6.35;;;;;;;13.76;71.99;93777.82;1844604;75;21051;-86
2021/10/05 06:07:46;;;;;;;8.00;5.97;;;;;;;13.78;71.03;93778.20;1821044;75;22260;-84
2021/10/05 06:10:15;;;;;;;10.88;5.60;;;;;;;13.66;71.39;93776.00;1847402;75;21485;-85
2021/10/05 06:12:43;;;;;;;6.50;4.95;;;;;;;13.56;71.77;93779.59;1846441;76;21093;-85
2021/10/05 06:15:12;;;;;;;6.10;5.37;;;;;;;13.50;72.38;93783.38;1837045;76;21096;-84
2021/10/05 06:17:41;;;;;;;7.60;6.83;;;;;;;13.41;72.61;93785.01;1794092;77;21046;-84
2021/10/05 06:20:12;;;;;;;9.08;6.75;;;;;;;13.29;73.41;93778.09;1775577;77;21066;-84
2021/10/05 06:22:39;;;;;;;10.93;6.33;;;;;;;13.07;73.98;93785.05;1740081;80;21042;-84
2021/10/05 06:25:09;;;;;;;6.42;4.72;;;;;;;13.05;74.68;93782.53;1840515;76;21665;-87
2021/10/05 06:27:36;;;;;;;6.87;4.92;;;;;;;13.28;75.38;93777.91;1850896;75;21865;-86
2021/10/05 06:30:04;;;;;;;7.20;5.00;;;;;;;13.54;75.33;93777.84;1852739;75;21942;-85
2021/10/05 06:32:33;;;;;;;5.33;4.40;;;;;;;13.69;74.47;93773.82;1832847;75;21085;-84
2021/10/05 06:34:59;;;;;;;6.35;5.03;;;;;;;13.75;73.88;93776.88;1801042;76;20984;-84
2021/10/05 06:37:26;;;;;;;8.58;4.78;;;;;;;13.70;72.86;93777.33;1843532;76;21398;-84
2021/10/05 06:39:52;;;;;;;11.48;4.65;;;;;;;13.65;73.10;93774.42;1827152;77;21572;-86
2021/10/05 06:42:19;;;;;;;5.25;4.62;;;;;;;13.69;73.47;93771.09;1825271;76;21643;-86
2021/10/05 06:44:46;;;;;;;4.90;4.40;;;;;;;13.66;73.28;93773.27;1837776;76;21130;-84
2021/10/05 06:47:12;;;;;;;5.28;4.60;;;;;;;13.59;73.20;93773.33;1821398;76;21069;-86
2021/10/05 06:49:41;;;;;;;5.58;4.65;;;;;;;13.51;73.60;93783.55;1840976;76;21002;-85
2021/10/05 06:52:07;;;;;;;7.17;5.00;;;;;;;13.51;73.86;93782.78;1847303;76;21035;-86
2021/10/05 06:54:36;;;;;;;8.25;5.50;;;;;;;13.48;72.43;93776.16;1807227;76;21157;-86
2021/10/05 06:57:03;;;;;;;6.67;5.08;;;;;;;13.44;72.17;93773.28;1766241;77;21324;-83
2021/10/05 06:59:32;;;;;;;7.15;5.60;;;;;;;13.41;72.47;93769.39;1833681;75;21018;-84
2021/10/05 07:01:59;;;;;;;9.28;5.65;;;;;;;13.42;72.85;93772.89;1844970;76;21353;-86
2021/10/05 07:04:26;;;;;;;7.72;5.42;;;;;;;13.50;73.07;93764.81;1758292;80;21050;-87
2021/10/05 07:06:52;;;;;;;6.03;5.42;;;;;;;13.58;72.91;93767.09;1749620;78;21112;-86
2021/10/05 07:09:19;;;;;;;9.93;6.10;;;;;;;13.66;72.61;93769.16;1745786;79;21083;-87
2021/10/05 07:11:48;;;;;;;6.58;5.30;;;;;;;13.74;72.19;93769.27;1837758;75;21065;-85
2021/10/05 07:14:14;;;;;;;9.20;5.28;;;;;;;13.81;71.65;93763.73;1860092;75;21050;-86
2021/10/05 07:16:40;;;;;;;10.35;5.67;;;;;;;13.87;71.84;93764.05;1840009;75;21037;-87
2021/10/05 07:19:07;;;;;;;9.80;5.28;;;;;;;13.94;71.41;93761.83;1811873;77;21050;-85
2021/10/05 07:21:34;;;;;;;8.70;5.22;;;;;;;13.96;71.02;93756.74;1824895;77;21098;-87
2021/10/05 07:24:00;;;;;;;7.55;5.33;;;;;;;13.98;70.46;93761.20;1825215;76;21472;-86
2021/10/05 07:26:28;;;;;;;6.90;4.92;;;;;;;14.02;70.57;93757.83;1829123;76;21124;-87
2021/10/05 07:28:55;;;;;;;9.10;4.72;;;;;;;14.09;70.30;93751.69;1825145;77;21042;-86
2021/10/05 07:31:22;;;;;;;10.43;5.17;;;;;;;14.17;70.49;93755.70;1826838;77;21039;-86
2021/10/05 07:33:48;;;;;;;5.87;4.90;;;;;;;14.26;70.41;93753.26;1824471;77;21136;-85
2021/10/05 07:36:17;;;;;;;7.47;5.22;;;;;;;14.37;70.44;93759.37;1828319;77;21053;-86
2021/10/05 07:38:43;;;;;;;7.33;5.15;;;;;;;14.51;69.99;93755.68;1821133;77;21140;-85
2021/10/05 07:41:09;;;;;;;7.87;5.17;;;;;;;14.71;68.75;93756.59;1829754;76;21341;-88
2021/10/05 07:43:36;;;;;;;9.30;4.95;;;;;;;14.90;68.34;93759.24;1835723;75;21045;-85
2021/10/05 07:46:04;;;;;;;8.88;5.22;;;;;;;15.03;68.20;93764.30;1853181;75;21606;-85
2021/10/05 07:48:31;;;;;;;6.40;4.70;;;;;;;15.17;68.46;93756.47;1829804;76;20967;-84
2021/10/05 07:50:58;;;;;;;9.30;4.92;;;;;;;15.32;67.87;93758.98;1830852;75;21045;-87
2021/10/05 07:53:25;;;;;;;7.33;5.00;;;;;;;15.46;67.28;93753.27;1768750;78;21038;-87
2021/10/05 07:55:51;;;;;;;7.97;4.70;;;;;;;15.59;66.83;93755.56;1729050;80;21074;-86
2021/10/05 07:58:18;;;;;;;8.28;5.03;;;;;;;15.71;66.22;93754.21;1803586;77;21124;-84
2021/10/05 08:00:44;;;;;;;7.92;4.78;;;;;;;15.85;66.00;93752.58;1806251;77;21045;-85
2021/10/05 08:03:10;;;;;;;7.30;5.00;;;;;;;15.99;65.31;93750.17;1830479;75;21663;-85
2021/10/05 08:05:37;;;;;;;6.05;4.87;;;;;;;16.12;64.43;93750.31;1840623;75;21038;-87
2021/10/05 08:08:08;;;;;;;10.10;5.40;;;;;;;16.18;64.70;93749.40;1838357;75;21232;-85
2021/10/05 08:10:35;;;;;;;6.53;4.78;;;;;;;16.25;64.35;93747.89;1759938;79;21659;-85
2021/10/05 08:13:03;;;;;;;10.00;5.95;;;;;;;16.33;63.66;93747.14;1787388;78;21093;-85
2021/10/05 08:15:29;;;;;;;6.10;4.45;;;;;;;16.41;63.34;93746.39;1787829;78;21061;-86
2021/10/05 08:17:56;;;;;;;8.90;4.83;;;;;;;16.45;63.53;93749.83;1802192;75;21128;-86
2021/10/05 08:20:23;;;;;;;11.33;5.22;;;;;;;16.52;63.10;93746.94;1836738;75;21362;-87
2021/10/05 08:22:49;;;;;;;13.70;5.20;;;;;;;16.56;61.39;93751.75;1810712;77;21713;-86
2021/10/05 08:25:16;;;;;;;9.40;4.83;;;;;;;16.59;61.75;93744.65;1804264;77;21020;-87
2021/10/05 08:27:45;;;;;;;9.25;4.87;;;;;;;16.64;61.36;93751.00;1808548;77;21066;-86
2021/10/05 08:30:13;;;;;;;13.10;4.55;;;;;;;16.67;61.92;93747.41;1733121;80;21039;-86
2021/10/05 08:32:41;;;;;;;9.90;5.53;;;;;;;16.73;61.43;93742.37;1791170;77;21033;-86
2021/10/05 08:35:08;;;;;;;6.92;4.70;;;;;;;16.81;61.42;93743.58;1813930;76;21325;-85
2021/10/05 08:37:37;;;;;;;7.33;5.17;;;;;;;16.89;60.43;93738.13;1803995;77;21049;-86
2021/10/05 08:40:05;;;;;;;8.63;5.08;;;;;;;16.93;59.80;93735.47;1823641;76;21139;-86
2021/10/05 08:42:32;;;;;;;12.50;5.40;;;;;;;16.96;59.46;93726.38;1793274;76;21532;-85
2021/10/05 08:44:59;;;;;;;6.92;5.25;;;;;;;17.02;59.87;93733.48;1766465;79;21065;-86
2021/10/05 08:47:26;;;;;;;7.62;5.83;;;;;;;17.07;59.29;93725.33;1758677;79;21151;-86
2021/10/05 08:49:54;;;;;;;6.47;4.97;;;;;;;17.13;59.44;93723.02;1809177;77;21034;-86
2021/10/05 08:52:20;;;;;;;9.25;5.00;;;;;;;17.19;59.32;93720.54;1743932;79;21478;-86
2021/10/05 08:54:47;;;;;;;6.80;4.58;;;;;;;17.25;59.10;93721.55;1769463;78;21021;-87
2021/10/05 08:57:14;;;;;;;5.92;4.50;;;;;;;17.35;59.39;93725.25;1780481;78;20967;-86
2021/10/05 08:59:40;;;;;;;5.85;4.80;;;;;;;17.46;58.46;93716.13;1827330;77;21118;-86
2021/10/05 09:02:16;;;;;;;11.03;4.87;;;;;;;17.56;58.36;93714.30;1833314;77;22039;-86
2021/10/05 09:04:44;;;;;;;5.67;5.10;;;;;;;17.65;57.18;93717.22;1852493;75;21374;-85
2021/10/05 09:07:21;;;;;;;6.10;4.58;;;;;;;17.71;57.36;93712.72;1830551;76;21038;-86
2021/10/05 09:09:57;;;;;;;9.88;6.08;;;;;;;17.71;57.62;93717.64;1777179;78;21003;-83
2021/10/05 09:12:30;;;;;;;7.85;5.45;;;;;;;17.66;57.59;93714.02;1766584;78;21291;-86
2021/10/05 09:14:57;;;;;;;6.08;5.10;;;;;;;17.67;57.45;93709.29;1789195;77;21019;-84
2021/10/05 09:17:29;;;;;;;7.53;5.00;;;;;;;17.69;57.17;93707.66;1843174;76;21541;-87
2021/10/05 09:19:57;;;;;;;6.62;4.80;;;;;;;17.67;57.33;93709.29;1851745;77;21075;-86
2021/10/05 09:22:30;;;;;;;8.70;4.70;;;;;;;17.63;57.77;93710.76;1829411;77;21532;-83
2021/10/05 09:24:57;;;;;;;6.85;4.35;;;;;;;17.62;58.93;93711.97;1844821;76;21104;-83
2021/10/05 09:27:25;;;;;;;5.03;4.53;;;;;;;17.61;59.00;93711.81;1810907;77;21570;-83
2021/10/05 09:29:53;;;;;;;6.12;4.83;;;;;;;17.58;58.00;93711.90;1812474;77;21874;-83
2021/10/05 09:32:21;;;;;;;7.28;4.65;;;;;;;17.55;57.80;93713.53;1768562;78;21064;-84
2021/10/05 09:34:56;;;;;;;8.95;5.22;;;;;;;17.51;56.96;93703.23;1729111;80;21072;-87
2021/10/05 09:37:32;;;;;;;6.10;4.90;;;;;;;17.49;57.63;93716.65;1762000;79;22341;-84
2021/10/05 09:40:12;;;;;;;4.97;4.58;;;;;;;17.40;57.11;93717.23;1829654;75;21112;-83
2021/10/05 09:42:45;;;;;;;9.20;5.22;;;;;;;17.28;54.74;93714.43;1803723;77;20996;-84
2021/10/05 09:45:24;;;;;;;9.13;6.00;;;;;;;17.27;55.46;93717.78;1754821;79;21214;-83
2021/10/05 09:47:54;;;;;;;8.73;5.95;;;;;;;17.34;57.41;93717.61;1778945;78;21031;-84
2021/10/05 09:50:33;;;;;;;9.28;5.20;;;;;;;17.43;58.35;93721.88;1825303;77;21137;-86
2021/10/05 09:53:05;;;;;;;9.00;5.37;;;;;;;17.47;58.99;93714.92;1846309;76;21588;-86
2021/10/05 09:55:36;;;;;;;12.50;6.35;;;;;;;17.54;56.96;93716.11;1806161;77;21213;-84
2021/10/05 09:58:02;;;;;;;8.98;6.35;;;;;;;17.59;57.87;93720.31;1840422;76;21030;-84
2021/10/05 10:00:32;;;;;;;8.58;5.87;;;;;;;17.58;57.79;93720.92;1837746;75;21049;-85
2021/10/05 10:02:58;;;;;;;7.10;5.42;;;;;;;17.55;57.82;93716.28;1815176;77;21042;-84
2021/10/05 10:05:26;;;;;;;8.50;5.80;;;;;;;17.58;56.76;93722.30;1782608;77;21077;-85
2021/10/05 10:07:55;;;;;;;7.28;5.70;;;;;;;17.57;57.49;93714.48;1776617;77;21075;-86
2021/10/05 10:10:26;;;;;;;7.45;6.08;;;;;;;17.52;57.52;93717.14;1817411;76;21026;-84
2021/10/05 10:12:56;;;;;;;9.35;6.15;;;;;;;17.47;57.87;93719.81;1838551;76;21006;-83
2021/10/05 10:15:28;;;;;;;5.53;4.70;;;;;;;17.40;57.88;93723.34;1811620;77;21112;-85
2021/10/05 10:18:07;;;;;;;9.13;5.65;;;;;;;17.40;57.62;93726.09;1812792;77;21022;-84
2021/10/05 10:20:33;;;;;;;11.22;6.22;;;;;;;17.47;57.68;93714.92;1795209;77;21088;-85
2021/10/05 10:23:00;;;;;;;9.78;5.60;;;;;;;17.52;57.73;93724.61;1807055;77;21018;-84
2021/10/05 10:25:29;;;;;;;11.95;5.85;;;;;;;17.57;57.12;93709.76;1838426;75;21010;-89
2021/10/05 10:28:00;;;;;;;8.03;4.92;;;;;;;17.59;57.47;93710.08;1843630;75;21071;-87
2021/10/05 10:30:28;;;;;;;9.23;5.90;;;;;;;17.62;57.81;93712.58;1839135;75;21096;-87
2021/10/05 10:33:00;;;;;;;16.30;5.90;;;;;;;17.67;58.09;93712.04;1835051;75;21075;-88
2021/10/05 10:35:26;;;;;;;10.82;5.58;;;;;;;17.72;58.01;93718.41;1807009;77;21580;-86
2021/10/05 10:37:53;;;;;;;9.90;5.42;;;;;;;17.77;57.70;93715.15;1808327;77;21104;-85
2021/10/05 10:40:37;;;;;;;9.03;5.42;;;;;;;17.81;57.54;93713.07;1839793;75;21614;-87
2021/10/05 10:43:14;;;;;;;14.60;5.90;;;;;;;17.82;57.72;93715.98;1831833;76;21088;-85
2021/10/05 10:45:47;;;;;;;8.60;6.00;;;;;;;17.82;57.35;93717.36;1789039;76;21495;-84
2021/10/05 10:48:30;;;;;;;10.23;5.97;;;;;;;17.81;57.11;93719.95;1811890;76;21066;-84
2021/10/05 10:50:59;;;;;;;10.60;6.12;;;;;;;17.81;57.07;93721.32;1753230;77;21504;-85
2021/10/05 10:56:01;;;;;;;9.20;6.50;;;;;;;17.80;56.95;93713.52;1778323;78;21077;-86
2021/10/05 10:58:35;;;;;;;9.78;6.10;;;;;;;17.80;56.76;93723.91;1813701;77;21058;-83
2021/10/05 11:01:01;;;;;;;18.32;8.58;;;;;;;17.82;56.42;93713.84;1828208;75;21094;-87
2021/10/05 11:03:28;;;;;;;10.03;6.20;;;;;;;17.81;56.17;93710.32;1807646;76;21016;-87
2021/10/05 11:05:54;;;;;;;9.78;5.67;;;;;;;17.80;56.38;93706.03;1753261;78;21473;-86
2021/10/05 11:08:20;;;;;;;8.85;5.17;;;;;;;17.79;56.46;93710.58;1791003;78;21086;-84
2021/10/05 11:10:47;;;;;;;8.78;5.70;;;;;;;17.76;56.36;93708.72;1751563;78;21096;-84
2021/10/05 11:13:13;;;;;;;9.03;5.37;;;;;;;17.75;56.27;93709.88;1765345;78;21034;-84
2021/10/05 11:15:45;;;;;;;8.90;7.00;;;;;;;17.73;56.15;93709.71;1735004;78;21085;-85
2021/10/05 11:18:20;;;;;;;8.93;6.28;;;;;;;17.71;56.26;93715.47;1729507;80;21782;-85
2021/10/05 11:20:59;;;;;;;11.63;5.87;;;;;;;17.73;56.96;93713.06;1782253;78;21034;-87
2021/10/05 11:23:26;;;;;;;7.30;4.90;;;;;;;17.76;56.79;93717.73;1839696;75;20994;-86
2021/10/05 11:25:56;;;;;;;17.95;6.25;;;;;;;17.82;56.69;93708.34;1784289;75;21085;-84
2021/10/05 11:28:26;;;;;;;6.47;5.08;;;;;;;17.85;56.36;93711.59;1775500;79;21395;-86
2021/10/05 11:31:02;;;;;;;7.95;5.53;;;;;;;17.86;55.49;93713.14;1814449;77;21839;-88
2021/10/05 11:33:36;;;;;;;10.78;5.33;;;;;;;17.83;55.00;93704.41;1818969;77;21031;-87
2021/10/05 11:36:18;;;;;;;9.50;5.00;;;;;;;17.80;55.07;93705.27;1808692;77;21594;-85
2021/10/05 11:38:47;;;;;;;7.67;5.22;;;;;;;17.77;55.62;93695.89;1784594;78;21053;-86